sensor_id;sensor_type;location;lat;lon;timestamp;P1;durP1;ratioP1;P2;durP2;ratioP2
10094;SDS011;5086;50.830;7.102;2023-05-24T00:02:06;9.68;;;2.13;;
10094;SDS011;5086;50.830;7.102;2023-05-24T00:04:37;7.55;;;2.67;;
10094;SDS011;5086;50.830;7.102;2023-05-24T00:07:05;7.85;;;3.15;;
10094;SDS011;5086;50.830;7.102;2023-05-24T00:09:34;6.03;;;2.35;;
10094;SDS011;5086;50.830;7.102;2023-05-24T00:12:01;7.35;;;3.17;;
10094;SDS011;5086;50.830;7.102;2023-05-24T00:14:28;10.43;;;2.75;;
10094;SDS011;5086;50.830;7.102;2023-05-24T00:16:57;5.72;;;2.97;;
10094;SDS011;5086;50.830;7.102;2023-05-24T00:19:25;6.00;;;2.47;;
10094;SDS011;5086;50.830;7.102;2023-05-24T00:21:53;6.05;;;2.80;;
10094;SDS011;5086;50.830;7.102;2023-05-24T00:24:20;10.27;;;3.00;;
10094;SDS011;5086;50.830;7.102;2023-05-24T00:26:47;3.75;;;2.35;;
10094;SDS011;5086;50.830;7.102;2023-05-24T00:29:14;4.50;;;2.60;;
10094;SDS011;5086;50.830;7.102;2023-05-24T00:31:41;5.65;;;2.90;;
10094;SDS011;5086;50.830;7.102;2023-05-24T00:34:08;8.32;;;2.97;;
10094;SDS011;5086;50.830;7.102;2023-05-24T00:36:36;6.72;;;3.00;;
10094;SDS011;5086;50.830;7.102;2023-05-24T00:39:03;6.93;;;2.67;;
10094;SDS011;5086;50.830;7.102;2023-05-24T00:41:42;6.43;;;2.53;;
10094;SDS011;5086;50.830;7.102;2023-05-24T00:44:09;15.70;;;3.65;;
10094;SDS011;5086;50.830;7.102;2023-05-24T00:46:36;6.30;;;3.10;;
10094;SDS011;5086;50.830;7.102;2023-05-24T00:49:03;6.65;;;2.20;;
10094;SDS011;5086;50.830;7.102;2023-05-24T00:51:30;5.15;;;2.70;;
10094;SDS011;5086;50.830;7.102;2023-05-24T00:53:59;7.32;;;3.10;;
10094;SDS011;5086;50.830;7.102;2023-05-24T00:56:26;4.78;;;2.55;;
10094;SDS011;5086;50.830;7.102;2023-05-24T00:58:53;3.95;;;2.33;;
10094;SDS011;5086;50.830;7.102;2023-05-24T01:01:21;6.05;;;2.90;;
10094;SDS011;5086;50.830;7.102;2023-05-24T01:03:49;6.65;;;3.08;;
10094;SDS011;5086;50.830;7.102;2023-05-24T01:06:17;4.63;;;2.65;;
10094;SDS011;5086;50.830;7.102;2023-05-24T01:08:47;4.78;;;2.47;;
10094;SDS011;5086;50.830;7.102;2023-05-24T01:11:28;6.10;;;2.25;;
10094;SDS011;5086;50.830;7.102;2023-05-24T01:14:03;10.35;;;2.92;;
10094;SDS011;5086;50.830;7.102;2023-05-24T01:16:40;5.22;;;1.90;;
10094;SDS011;5086;50.830;7.102;2023-05-24T01:19:24;9.80;;;3.53;;
10094;SDS011;5086;50.830;7.102;2023-05-24T01:22:28;11.27;;;3.60;;
10094;SDS011;5086;50.830;7.102;2023-05-24T01:25:07;7.05;;;2.60;;
10094;SDS011;5086;50.830;7.102;2023-05-24T01:27:46;7.50;;;2.92;;
10094;SDS011;5086;50.830;7.102;2023-05-24T01:30:13;11.02;;;3.10;;
10094;SDS011;5086;50.830;7.102;2023-05-24T01:32:40;3.67;;;2.63;;
10094;SDS011;5086;50.830;7.102;2023-05-24T01:35:08;6.47;;;3.10;;
10094;SDS011;5086;50.830;7.102;2023-05-24T01:37:37;5.70;;;2.50;;
10094;SDS011;5086;50.830;7.102;2023-05-24T01:40:04;7.68;;;2.60;;
10094;SDS011;5086;50.830;7.102;2023-05-24T01:42:34;8.15;;;2.30;;
10094;SDS011;5086;50.830;7.102;2023-05-24T01:45:13;6.75;;;2.88;;
10094;SDS011;5086;50.830;7.102;2023-05-24T01:47:48;5.65;;;2.78;;
10094;SDS011;5086;50.830;7.102;2023-05-24T01:50:27;6.65;;;2.40;;
10094;SDS011;5086;50.830;7.102;2023-05-24T01:52:57;3.70;;;2.33;;
10094;SDS011;5086;50.830;7.102;2023-05-24T01:55:34;5.35;;;2.50;;
10094;SDS011;5086;50.830;7.102;2023-05-24T01:58:03;10.90;;;3.13;;
10094;SDS011;5086;50.830;7.102;2023-05-24T02:00:33;10.40;;;3.10;;
10094;SDS011;5086;50.830;7.102;2023-05-24T02:03:00;6.38;;;2.55;;
10094;SDS011;5086;50.830;7.102;2023-05-24T02:05:27;20.83;;;2.88;;
10094;SDS011;5086;50.830;7.102;2023-05-24T02:07:54;7.50;;;2.60;;
10094;SDS011;5086;50.830;7.102;2023-05-24T02:10:21;10.20;;;2.55;;
10094;SDS011;5086;50.830;7.102;2023-05-24T02:12:48;7.20;;;2.85;;
10094;SDS011;5086;50.830;7.102;2023-05-24T02:15:15;6.47;;;2.42;;
10094;SDS011;5086;50.830;7.102;2023-05-24T02:17:44;4.10;;;3.08;;
10094;SDS011;5086;50.830;7.102;2023-05-24T02:20:12;6.00;;;3.10;;
10094;SDS011;5086;50.830;7.102;2023-05-24T02:22:41;8.05;;;2.63;;
10094;SDS011;5086;50.830;7.102;2023-05-24T02:25:08;13.07;;;2.15;;
10094;SDS011;5086;50.830;7.102;2023-05-24T02:27:35;4.60;;;2.90;;
10094;SDS011;5086;50.830;7.102;2023-05-24T02:30:02;21.15;;;3.38;;
10094;SDS011;5086;50.830;7.102;2023-05-24T02:32:29;4.80;;;2.40;;
10094;SDS011;5086;50.830;7.102;2023-05-24T02:34:58;9.15;;;2.58;;
10094;SDS011;5086;50.830;7.102;2023-05-24T02:37:25;9.07;;;2.72;;
10094;SDS011;5086;50.830;7.102;2023-05-24T02:39:52;6.22;;;2.17;;
10094;SDS011;5086;50.830;7.102;2023-05-24T02:42:21;6.38;;;2.65;;
10094;SDS011;5086;50.830;7.102;2023-05-24T02:44:48;9.32;;;3.13;;
10094;SDS011;5086;50.830;7.102;2023-05-24T02:47:16;3.58;;;2.63;;
10094;SDS011;5086;50.830;7.102;2023-05-24T02:49:43;3.30;;;1.80;;
10094;SDS011;5086;50.830;7.102;2023-05-24T02:52:11;6.97;;;2.20;;
10094;SDS011;5086;50.830;7.102;2023-05-24T02:54:40;8.30;;;2.60;;
10094;SDS011;5086;50.830;7.102;2023-05-24T02:57:06;9.95;;;2.45;;
10094;SDS011;5086;50.830;7.102;2023-05-24T02:59:33;5.82;;;2.60;;
10094;SDS011;5086;50.830;7.102;2023-05-24T03:02:00;10.82;;;2.58;;
10094;SDS011;5086;50.830;7.102;2023-05-24T03:04:27;11.93;;;3.15;;
10094;SDS011;5086;50.830;7.102;2023-05-24T03:06:54;7.22;;;2.97;;
10094;SDS011;5086;50.830;7.102;2023-05-24T03:09:22;7.60;;;2.25;;
10094;SDS011;5086;50.830;7.102;2023-05-24T03:11:49;9.98;;;2.40;;
10094;SDS011;5086;50.830;7.102;2023-05-24T03:14:16;3.30;;;2.30;;
10094;SDS011;5086;50.830;7.102;2023-05-24T03:16:46;12.32;;;2.85;;
10094;SDS011;5086;50.830;7.102;2023-05-24T03:19:13;10.65;;;2.67;;
10094;SDS011;5086;50.830;7.102;2023-05-24T03:21:41;6.85;;;2.75;;
10094;SDS011;5086;50.830;7.102;2023-05-24T03:24:08;23.55;;;3.30;;
10094;SDS011;5086;50.830;7.102;2023-05-24T03:26:38;6.18;;;3.05;;
10094;SDS011;5086;50.830;7.102;2023-05-24T03:29:05;14.73;;;3.33;;
10094;SDS011;5086;50.830;7.102;2023-05-24T03:31:32;7.88;;;2.50;;
10094;SDS011;5086;50.830;7.102;2023-05-24T03:33:59;7.97;;;3.47;;
10094;SDS011;5086;50.830;7.102;2023-05-24T03:36:26;5.38;;;2.90;;
10094;SDS011;5086;50.830;7.102;2023-05-24T03:38:53;3.70;;;2.53;;
10094;SDS011;5086;50.830;7.102;2023-05-24T03:41:22;8.43;;;2.83;;
10094;SDS011;5086;50.830;7.102;2023-05-24T03:43:50;6.97;;;2.85;;
10094;SDS011;5086;50.830;7.102;2023-05-24T03:46:17;8.25;;;3.00;;
10094;SDS011;5086;50.830;7.102;2023-05-24T03:48:44;10.38;;;3.67;;
10094;SDS011;5086;50.830;7.102;2023-05-24T03:51:11;15.40;;;2.97;;
10094;SDS011;5086;50.830;7.102;2023-05-24T03:53:38;5.15;;;2.63;;
10094;SDS011;5086;50.830;7.102;2023-05-24T03:56:05;11.45;;;3.38;;
10094;SDS011;5086;50.830;7.102;2023-05-24T03:58:31;6.18;;;2.90;;
10094;SDS011;5086;50.830;7.102;2023-05-24T04:01:00;3.20;;;2.50;;
10094;SDS011;5086;50.830;7.102;2023-05-24T04:03:27;5.65;;;2.75;;
10094;SDS011;5086;50.830;7.102;2023-05-24T04:05:54;10.70;;;2.75;;
10094;SDS011;5086;50.830;7.102;2023-05-24T04:08:21;4.25;;;2.88;;
10094;SDS011;5086;50.830;7.102;2023-05-24T04:10:47;8.75;;;3.20;;
10094;SDS011;5086;50.830;7.102;2023-05-24T04:13:14;10.70;;;2.90;;
10094;SDS011;5086;50.830;7.102;2023-05-24T04:15:41;12.90;;;4.70;;
10094;SDS011;5086;50.830;7.102;2023-05-24T04:18:10;8.35;;;3.10;;
10094;SDS011;5086;50.830;7.102;2023-05-24T04:20:37;7.47;;;2.67;;
10094;SDS011;5086;50.830;7.102;2023-05-24T04:23:05;6.38;;;3.35;;
10094;SDS011;5086;50.830;7.102;2023-05-24T04:25:32;13.48;;;3.10;;
10094;SDS011;5086;50.830;7.102;2023-05-24T04:27:59;11.73;;;3.22;;
10094;SDS011;5086;50.830;7.102;2023-05-24T04:30:26;10.43;;;2.78;;
10094;SDS011;5086;50.830;7.102;2023-05-24T04:32:54;8.90;;;3.40;;
10094;SDS011;5086;50.830;7.102;2023-05-24T04:35:22;10.50;;;3.78;;
10094;SDS011;5086;50.830;7.102;2023-05-24T04:37:50;6.07;;;3.25;;
10094;SDS011;5086;50.830;7.102;2023-05-24T04:40:17;12.90;;;3.55;;
10094;SDS011;5086;50.830;7.102;2023-05-24T04:42:46;7.68;;;3.22;;
10094;SDS011;5086;50.830;7.102;2023-05-24T04:45:13;5.13;;;3.05;;
10094;SDS011;5086;50.830;7.102;2023-05-24T04:47:40;7.22;;;3.65;;
10094;SDS011;5086;50.830;7.102;2023-05-24T04:50:07;10.55;;;3.53;;
10094;SDS011;5086;50.830;7.102;2023-05-24T04:52:36;24.10;;;3.75;;
10094;SDS011;5086;50.830;7.102;2023-05-24T04:55:03;58.47;;;4.82;;
10094;SDS011;5086;50.830;7.102;2023-05-24T04:57:30;6.55;;;3.05;;
10094;SDS011;5086;50.830;7.102;2023-05-24T04:59:57;18.20;;;3.55;;
10094;SDS011;5086;50.830;7.102;2023-05-24T05:02:24;10.20;;;3.50;;
10094;SDS011;5086;50.830;7.102;2023-05-24T05:04:51;12.07;;;3.95;;
10094;SDS011;5086;50.830;7.102;2023-05-24T05:07:18;6.57;;;3.17;;
10094;SDS011;5086;50.830;7.102;2023-05-24T05:09:46;7.00;;;3.35;;
10094;SDS011;5086;50.830;7.102;2023-05-24T05:12:13;10.75;;;3.65;;
10094;SDS011;5086;50.830;7.102;2023-05-24T05:14:40;12.05;;;3.40;;
10094;SDS011;5086;50.830;7.102;2023-05-24T05:17:07;7.85;;;5.07;;
10094;SDS011;5086;50.830;7.102;2023-05-24T05:19:34;22.15;;;4.22;;
10094;SDS011;5086;50.830;7.102;2023-05-24T05:22:01;14.15;;;4.10;;
10094;SDS011;5086;50.830;7.102;2023-05-24T05:24:28;7.30;;;3.70;;
10094;SDS011;5086;50.830;7.102;2023-05-24T05:26:56;5.95;;;3.00;;
10094;SDS011;5086;50.830;7.102;2023-05-24T05:29:23;12.50;;;3.10;;
10094;SDS011;5086;50.830;7.102;2023-05-24T05:31:50;11.80;;;3.40;;
10094;SDS011;5086;50.830;7.102;2023-05-24T05:34:17;26.20;;;5.50;;
10094;SDS011;5086;50.830;7.102;2023-05-24T05:36:45;11.38;;;4.40;;
10094;SDS011;5086;50.830;7.102;2023-05-24T05:39:12;28.58;;;5.35;;
10094;SDS011;5086;50.830;7.102;2023-05-24T05:41:39;16.15;;;3.97;;
10094;SDS011;5086;50.830;7.102;2023-05-24T05:44:09;11.15;;;4.65;;
10094;SDS011;5086;50.830;7.102;2023-05-24T05:46:36;7.45;;;3.00;;
10094;SDS011;5086;50.830;7.102;2023-05-24T05:49:03;9.38;;;3.30;;
10094;SDS011;5086;50.830;7.102;2023-05-24T05:51:31;8.00;;;4.32;;
10094;SDS011;5086;50.830;7.102;2023-05-24T05:53:57;11.85;;;3.70;;
10094;SDS011;5086;50.830;7.102;2023-05-24T05:56:24;10.05;;;3.10;;
10094;SDS011;5086;50.830;7.102;2023-05-24T05:58:52;9.40;;;3.85;;
10094;SDS011;5086;50.830;7.102;2023-05-24T06:01:21;10.38;;;3.30;;
10094;SDS011;5086;50.830;7.102;2023-05-24T06:03:48;14.77;;;3.50;;
10094;SDS011;5086;50.830;7.102;2023-05-24T06:06:16;14.60;;;4.13;;
10094;SDS011;5086;50.830;7.102;2023-05-24T06:08:43;20.60;;;4.88;;
10094;SDS011;5086;50.830;7.102;2023-05-24T06:11:11;13.77;;;3.80;;
10094;SDS011;5086;50.830;7.102;2023-05-24T06:13:38;10.90;;;5.43;;
10094;SDS011;5086;50.830;7.102;2023-05-24T06:16:05;9.05;;;4.00;;
10094;SDS011;5086;50.830;7.102;2023-05-24T06:18:35;15.23;;;4.40;;
10094;SDS011;5086;50.830;7.102;2023-05-24T06:21:02;7.25;;;3.38;;
10094;SDS011;5086;50.830;7.102;2023-05-24T06:23:29;25.38;;;4.53;;
10094;SDS011;5086;50.830;7.102;2023-05-24T06:25:58;12.45;;;4.32;;
10094;SDS011;5086;50.830;7.102;2023-05-24T06:28:25;10.02;;;3.78;;
10094;SDS011;5086;50.830;7.102;2023-05-24T06:30:52;5.95;;;3.70;;
10094;SDS011;5086;50.830;7.102;2023-05-24T06:33:19;18.85;;;4.10;;
10094;SDS011;5086;50.830;7.102;2023-05-24T06:35:49;8.43;;;3.22;;
10094;SDS011;5086;50.830;7.102;2023-05-24T06:38:16;11.35;;;3.70;;
10094;SDS011;5086;50.830;7.102;2023-05-24T06:40:43;20.45;;;4.63;;
10094;SDS011;5086;50.830;7.102;2023-05-24T06:43:10;16.23;;;4.25;;
10094;SDS011;5086;50.830;7.102;2023-05-24T06:45:37;12.50;;;3.70;;
10094;SDS011;5086;50.830;7.102;2023-05-24T06:48:04;17.88;;;4.20;;
10094;SDS011;5086;50.830;7.102;2023-05-24T06:50:31;11.05;;;3.60;;
10094;SDS011;5086;50.830;7.102;2023-05-24T06:52:59;10.95;;;3.88;;
10094;SDS011;5086;50.830;7.102;2023-05-24T06:55:26;8.02;;;3.03;;
10094;SDS011;5086;50.830;7.102;2023-05-24T06:57:53;14.93;;;3.60;;
10094;SDS011;5086;50.830;7.102;2023-05-24T07:00:23;16.23;;;3.50;;
10094;SDS011;5086;50.830;7.102;2023-05-24T07:02:51;16.83;;;4.30;;
10094;SDS011;5086;50.830;7.102;2023-05-24T07:05:18;11.70;;;3.38;;
10094;SDS011;5086;50.830;7.102;2023-05-24T07:07:46;11.65;;;3.65;;
10094;SDS011;5086;50.830;7.102;2023-05-24T07:10:14;10.18;;;3.30;;
10094;SDS011;5086;50.830;7.102;2023-05-24T07:12:41;14.82;;;3.67;;
10094;SDS011;5086;50.830;7.102;2023-05-24T07:15:09;15.88;;;4.38;;
10094;SDS011;5086;50.830;7.102;2023-05-24T07:17:35;10.10;;;3.72;;
10094;SDS011;5086;50.830;7.102;2023-05-24T07:20:02;8.15;;;3.28;;
10094;SDS011;5086;50.830;7.102;2023-05-24T07:22:34;17.83;;;4.60;;
10094;SDS011;5086;50.830;7.102;2023-05-24T07:25:00;8.60;;;3.63;;
10094;SDS011;5086;50.830;7.102;2023-05-24T07:27:29;9.98;;;3.35;;
10094;SDS011;5086;50.830;7.102;2023-05-24T07:29:56;13.73;;;3.47;;
10094;SDS011;5086;50.830;7.102;2023-05-24T07:32:23;8.95;;;3.45;;
10094;SDS011;5086;50.830;7.102;2023-05-24T07:34:50;9.80;;;3.45;;
10094;SDS011;5086;50.830;7.102;2023-05-24T07:37:17;14.60;;;3.55;;
10094;SDS011;5086;50.830;7.102;2023-05-24T07:39:48;10.77;;;3.75;;
10094;SDS011;5086;50.830;7.102;2023-05-24T07:42:15;11.32;;;4.28;;
10094;SDS011;5086;50.830;7.102;2023-05-24T07:44:43;8.40;;;3.90;;
10094;SDS011;5086;50.830;7.102;2023-05-24T07:47:10;8.18;;;3.63;;
10094;SDS011;5086;50.830;7.102;2023-05-24T07:49:37;12.93;;;3.58;;
10094;SDS011;5086;50.830;7.102;2023-05-24T07:52:04;15.13;;;3.97;;
10094;SDS011;5086;50.830;7.102;2023-05-24T07:54:31;13.52;;;3.40;;
10094;SDS011;5086;50.830;7.102;2023-05-24T07:56:58;11.85;;;3.95;;
10094;SDS011;5086;50.830;7.102;2023-05-24T07:59:26;17.25;;;4.40;;
10094;SDS011;5086;50.830;7.102;2023-05-24T08:01:54;15.73;;;4.22;;
10094;SDS011;5086;50.830;7.102;2023-05-24T08:04:25;11.23;;;4.93;;
10094;SDS011;5086;50.830;7.102;2023-05-24T08:06:53;10.20;;;4.57;;
10094;SDS011;5086;50.830;7.102;2023-05-24T08:09:20;9.98;;;3.92;;
10094;SDS011;5086;50.830;7.102;2023-05-24T08:11:47;8.57;;;3.65;;
10094;SDS011;5086;50.830;7.102;2023-05-24T08:14:14;15.25;;;3.50;;
10094;SDS011;5086;50.830;7.102;2023-05-24T08:16:41;17.48;;;3.90;;
10094;SDS011;5086;50.830;7.102;2023-05-24T08:19:09;10.10;;;4.13;;
10094;SDS011;5086;50.830;7.102;2023-05-24T08:21:36;11.48;;;3.60;;
10094;SDS011;5086;50.830;7.102;2023-05-24T08:24:03;15.48;;;4.43;;
10094;SDS011;5086;50.830;7.102;2023-05-24T08:26:30;9.70;;;3.92;;
10094;SDS011;5086;50.830;7.102;2023-05-24T08:28:57;10.77;;;3.40;;
10094;SDS011;5086;50.830;7.102;2023-05-24T08:31:24;9.32;;;4.22;;
10094;SDS011;5086;50.830;7.102;2023-05-24T08:33:51;5.18;;;3.25;;
10094;SDS011;5086;50.830;7.102;2023-05-24T08:36:20;14.25;;;3.88;;
10094;SDS011;5086;50.830;7.102;2023-05-24T08:38:47;19.30;;;4.15;;
10094;SDS011;5086;50.830;7.102;2023-05-24T08:41:14;14.02;;;3.90;;
10094;SDS011;5086;50.830;7.102;2023-05-24T08:43:41;11.60;;;3.58;;
10094;SDS011;5086;50.830;7.102;2023-05-24T08:46:09;10.63;;;4.75;;
10094;SDS011;5086;50.830;7.102;2023-05-24T08:48:40;12.40;;;3.88;;
10094;SDS011;5086;50.830;7.102;2023-05-24T08:51:11;9.82;;;3.20;;
10094;SDS011;5086;50.830;7.102;2023-05-24T08:53:41;11.38;;;3.97;;
10094;SDS011;5086;50.830;7.102;2023-05-24T08:56:13;13.60;;;4.10;;
10094;SDS011;5086;50.830;7.102;2023-05-24T08:58:41;10.35;;;3.45;;
10094;SDS011;5086;50.830;7.102;2023-05-24T09:01:10;13.10;;;3.90;;
10094;SDS011;5086;50.830;7.102;2023-05-24T09:03:37;9.65;;;3.42;;
10094;SDS011;5086;50.830;7.102;2023-05-24T09:06:06;10.30;;;4.22;;
10094;SDS011;5086;50.830;7.102;2023-05-24T09:08:36;12.65;;;3.67;;
10094;SDS011;5086;50.830;7.102;2023-05-24T09:11:07;16.92;;;3.83;;
10094;SDS011;5086;50.830;7.102;2023-05-24T09:13:34;13.98;;;3.97;;
10094;SDS011;5086;50.830;7.102;2023-05-24T09:16:02;14.88;;;4.25;;
10094;SDS011;5086;50.830;7.102;2023-05-24T09:18:30;10.50;;;4.20;;
10094;SDS011;5086;50.830;7.102;2023-05-24T09:20:57;13.23;;;3.92;;
10094;SDS011;5086;50.830;7.102;2023-05-24T09:23:24;11.77;;;4.10;;
10094;SDS011;5086;50.830;7.102;2023-05-24T09:25:52;11.75;;;4.07;;
10094;SDS011;5086;50.830;7.102;2023-05-24T09:28:20;8.10;;;3.95;;
10094;SDS011;5086;50.830;7.102;2023-05-24T09:30:56;14.63;;;3.83;;
10094;SDS011;5086;50.830;7.102;2023-05-24T09:33:27;13.05;;;4.80;;
10094;SDS011;5086;50.830;7.102;2023-05-24T09:35:56;9.38;;;4.97;;
10094;SDS011;5086;50.830;7.102;2023-05-24T09:38:24;8.18;;;4.50;;
10094;SDS011;5086;50.830;7.102;2023-05-24T09:40:59;10.82;;;4.88;;
10094;SDS011;5086;50.830;7.102;2023-05-24T09:43:29;7.60;;;3.88;;
10094;SDS011;5086;50.830;7.102;2023-05-24T09:46:00;9.65;;;3.70;;
10094;SDS011;5086;50.830;7.102;2023-05-24T09:48:29;8.35;;;3.70;;
10094;SDS011;5086;50.830;7.102;2023-05-24T09:50:58;9.27;;;3.92;;
10094;SDS011;5086;50.830;7.102;2023-05-24T09:53:30;11.07;;;3.70;;
10094;SDS011;5086;50.830;7.102;2023-05-24T09:55:59;8.18;;;3.60;;
10094;SDS011;5086;50.830;7.102;2023-05-24T09:58:31;9.63;;;4.15;;
10094;SDS011;5086;50.830;7.102;2023-05-24T10:01:02;11.57;;;4.25;;
10094;SDS011;5086;50.830;7.102;2023-05-24T10:03:31;13.43;;;4.80;;
10094;SDS011;5086;50.830;7.102;2023-05-24T10:05:58;16.13;;;5.28;;
10094;SDS011;5086;50.830;7.102;2023-05-24T10:08:29;7.07;;;3.70;;
10094;SDS011;5086;50.830;7.102;2023-05-24T10:10:57;9.32;;;3.65;;
10094;SDS011;5086;50.830;7.102;2023-05-24T10:13:25;10.13;;;3.30;;
10094;SDS011;5086;50.830;7.102;2023-05-24T10:15:54;10.25;;;3.67;;
10094;SDS011;5086;50.830;7.102;2023-05-24T10:18:21;6.18;;;3.20;;
10094;SDS011;5086;50.830;7.102;2023-05-24T10:20:54;5.32;;;3.15;;
10094;SDS011;5086;50.830;7.102;2023-05-24T10:23:23;7.13;;;3.35;;
10094;SDS011;5086;50.830;7.102;2023-05-24T10:26:02;13.60;;;4.18;;
10094;SDS011;5086;50.830;7.102;2023-05-24T10:28:31;8.85;;;3.47;;
10094;SDS011;5086;50.830;7.102;2023-05-24T10:31:04;17.65;;;4.70;;
10094;SDS011;5086;50.830;7.102;2023-05-24T10:33:36;12.82;;;4.15;;
10094;SDS011;5086;50.830;7.102;2023-05-24T10:36:05;10.02;;;3.80;;
10094;SDS011;5086;50.830;7.102;2023-05-24T10:38:36;12.85;;;5.05;;
10094;SDS011;5086;50.830;7.102;2023-05-24T10:41:04;11.95;;;4.78;;
10094;SDS011;5086;50.830;7.102;2023-05-24T10:43:34;17.60;;;4.60;;
10094;SDS011;5086;50.830;7.102;2023-05-24T10:46:06;14.40;;;4.28;;
10094;SDS011;5086;50.830;7.102;2023-05-24T10:48:34;7.10;;;3.88;;
10094;SDS011;5086;50.830;7.102;2023-05-24T10:54:10;16.33;;;4.40;;
10094;SDS011;5086;50.830;7.102;2023-05-24T10:56:42;11.25;;;3.72;;
10094;SDS011;5086;50.830;7.102;2023-05-24T10:59:20;12.00;;;4.13;;
10094;SDS011;5086;50.830;7.102;2023-05-24T11:02:02;7.90;;;3.40;;
10094;SDS011;5086;50.830;7.102;2023-05-24T11:04:45;11.07;;;3.42;;
10094;SDS011;5086;50.830;7.102;2023-05-24T11:07:13;24.05;;;4.20;;
10094;SDS011;5086;50.830;7.102;2023-05-24T11:09:42;13.40;;;4.05;;
10094;SDS011;5086;50.830;7.102;2023-05-24T11:12:17;9.30;;;4.13;;
10094;SDS011;5086;50.830;7.102;2023-05-24T11:14:48;13.75;;;3.83;;
10094;SDS011;5086;50.830;7.102;2023-05-24T11:17:19;11.38;;;3.60;;
10094;SDS011;5086;50.830;7.102;2023-05-24T11:19:47;11.85;;;4.00;;
10094;SDS011;5086;50.830;7.102;2023-05-24T11:22:16;10.88;;;3.83;;
10094;SDS011;5086;50.830;7.102;2023-05-24T11:24:45;12.55;;;3.97;;
10094;SDS011;5086;50.830;7.102;2023-05-24T11:27:12;9.60;;;3.30;;
10094;SDS011;5086;50.830;7.102;2023-05-24T11:29:39;8.70;;;3.30;;
10094;SDS011;5086;50.830;7.102;2023-05-24T11:32:07;10.60;;;4.22;;
10094;SDS011;5086;50.830;7.102;2023-05-24T11:34:36;8.23;;;4.10;;
10094;SDS011;5086;50.830;7.102;2023-05-24T11:37:05;9.70;;;3.88;;
10094;SDS011;5086;50.830;7.102;2023-05-24T11:39:32;6.30;;;4.05;;
10094;SDS011;5086;50.830;7.102;2023-05-24T11:42:03;12.77;;;4.07;;
10094;SDS011;5086;50.830;7.102;2023-05-24T11:44:31;9.20;;;4.30;;
10094;SDS011;5086;50.830;7.102;2023-05-24T11:47:03;9.07;;;5.00;;
10094;SDS011;5086;50.830;7.102;2023-05-24T11:49:31;16.88;;;4.75;;
10094;SDS011;5086;50.830;7.102;2023-05-24T11:52:00;13.00;;;4.82;;
10094;SDS011;5086;50.830;7.102;2023-05-24T11:54:29;10.00;;;4.72;;
10094;SDS011;5086;50.830;7.102;2023-05-24T11:56:57;11.85;;;4.90;;
10094;SDS011;5086;50.830;7.102;2023-05-24T11:59:25;9.50;;;4.07;;
10094;SDS011;5086;50.830;7.102;2023-05-24T12:01:58;13.50;;;4.18;;
10094;SDS011;5086;50.830;7.102;2023-05-24T12:04:26;8.20;;;3.85;;
10094;SDS011;5086;50.830;7.102;2023-05-24T12:06:53;10.05;;;3.97;;
10094;SDS011;5086;50.830;7.102;2023-05-24T12:09:22;10.48;;;4.07;;
10094;SDS011;5086;50.830;7.102;2023-05-24T12:11:50;9.07;;;4.10;;
10094;SDS011;5086;50.830;7.102;2023-05-24T12:14:18;13.10;;;4.50;;
10094;SDS011;5086;50.830;7.102;2023-05-24T12:16:47;15.85;;;4.70;;
10094;SDS011;5086;50.830;7.102;2023-05-24T12:19:17;12.85;;;4.65;;
10094;SDS011;5086;50.830;7.102;2023-05-24T12:21:45;5.55;;;3.90;;
10094;SDS011;5086;50.830;7.102;2023-05-24T12:24:15;9.30;;;4.22;;
10094;SDS011;5086;50.830;7.102;2023-05-24T12:26:45;6.38;;;3.55;;
10094;SDS011;5086;50.830;7.102;2023-05-24T12:29:13;11.65;;;3.20;;
10094;SDS011;5086;50.830;7.102;2023-05-24T12:31:41;11.70;;;4.10;;
10094;SDS011;5086;50.830;7.102;2023-05-24T12:34:12;16.00;;;3.78;;
10094;SDS011;5086;50.830;7.102;2023-05-24T12:36:42;10.32;;;3.67;;
10094;SDS011;5086;50.830;7.102;2023-05-24T12:39:16;7.10;;;2.97;;
10094;SDS011;5086;50.830;7.102;2023-05-24T12:41:50;10.95;;;3.50;;
10094;SDS011;5086;50.830;7.102;2023-05-24T12:44:21;13.25;;;4.10;;
10094;SDS011;5086;50.830;7.102;2023-05-24T12:46:49;6.03;;;2.85;;
10094;SDS011;5086;50.830;7.102;2023-05-24T12:49:18;11.15;;;3.88;;
10094;SDS011;5086;50.830;7.102;2023-05-24T12:51:45;13.30;;;3.97;;
10094;SDS011;5086;50.830;7.102;2023-05-24T12:54:12;5.90;;;3.25;;
10094;SDS011;5086;50.830;7.102;2023-05-24T12:56:39;13.18;;;4.13;;
10094;SDS011;5086;50.830;7.102;2023-05-24T12:59:09;13.48;;;4.30;;
10094;SDS011;5086;50.830;7.102;2023-05-24T13:01:36;12.90;;;3.15;;
10094;SDS011;5086;50.830;7.102;2023-05-24T13:04:03;8.68;;;3.63;;
10094;SDS011;5086;50.830;7.102;2023-05-24T13:06:30;12.73;;;4.50;;
10094;SDS011;5086;50.830;7.102;2023-05-24T13:08:57;9.95;;;3.83;;
10094;SDS011;5086;50.830;7.102;2023-05-24T13:11:24;8.00;;;3.67;;
10094;SDS011;5086;50.830;7.102;2023-05-24T13:13:52;6.95;;;3.25;;
10094;SDS011;5086;50.830;7.102;2023-05-24T13:16:21;11.77;;;3.65;;
10094;SDS011;5086;50.830;7.102;2023-05-24T13:18:48;11.38;;;3.80;;
10094;SDS011;5086;50.830;7.102;2023-05-24T13:21:15;10.05;;;4.10;;
10094;SDS011;5086;50.830;7.102;2023-05-24T13:23:44;10.40;;;4.03;;
10094;SDS011;5086;50.830;7.102;2023-05-24T13:26:11;9.05;;;3.47;;
10094;SDS011;5086;50.830;7.102;2023-05-24T13:28:38;6.43;;;3.53;;
10094;SDS011;5086;50.830;7.102;2023-05-24T13:31:05;9.93;;;4.43;;
10094;SDS011;5086;50.830;7.102;2023-05-24T13:33:33;10.88;;;3.20;;
10094;SDS011;5086;50.830;7.102;2023-05-24T13:36:00;9.00;;;4.10;;
10094;SDS011;5086;50.830;7.102;2023-05-24T13:38:27;7.82;;;3.33;;
10094;SDS011;5086;50.830;7.102;2023-05-24T13:40:54;9.43;;;3.70;;
10094;SDS011;5086;50.830;7.102;2023-05-24T13:43:23;8.65;;;3.63;;
10094;SDS011;5086;50.830;7.102;2023-05-24T13:45:49;10.38;;;4.38;;
10094;SDS011;5086;50.830;7.102;2023-05-24T13:48:16;9.77;;;4.03;;
10094;SDS011;5086;50.830;7.102;2023-05-24T13:50:52;10.57;;;4.15;;
10094;SDS011;5086;50.830;7.102;2023-05-24T13:53:21;11.65;;;3.85;;
10094;SDS011;5086;50.830;7.102;2023-05-24T13:55:48;7.38;;;3.67;;
10094;SDS011;5086;50.830;7.102;2023-05-24T13:58:15;10.52;;;4.65;;
10094;SDS011;5086;50.830;7.102;2023-05-24T14:00:42;15.77;;;4.18;;
10094;SDS011;5086;50.830;7.102;2023-05-24T14:03:09;13.18;;;3.95;;
10094;SDS011;5086;50.830;7.102;2023-05-24T14:05:37;10.20;;;4.20;;
10094;SDS011;5086;50.830;7.102;2023-05-24T14:08:07;11.85;;;4.53;;
10094;SDS011;5086;50.830;7.102;2023-05-24T14:10:43;5.95;;;3.05;;
10094;SDS011;5086;50.830;7.102;2023-05-24T14:13:19;11.80;;;4.07;;
10094;SDS011;5086;50.830;7.102;2023-05-24T14:15:46;10.88;;;4.22;;
10094;SDS011;5086;50.830;7.102;2023-05-24T14:18:14;10.95;;;4.10;;
10094;SDS011;5086;50.830;7.102;2023-05-24T14:20:41;9.65;;;3.80;;
10094;SDS011;5086;50.830;7.102;2023-05-24T14:23:11;6.07;;;3.80;;
10094;SDS011;5086;50.830;7.102;2023-05-24T14:25:38;12.98;;;3.72;;
10094;SDS011;5086;50.830;7.102;2023-05-24T14:28:06;8.93;;;3.88;;
10094;SDS011;5086;50.830;7.102;2023-05-24T14:30:33;7.43;;;4.30;;
10094;SDS011;5086;50.830;7.102;2023-05-24T14:33:01;14.07;;;3.65;;
10094;SDS011;5086;50.830;7.102;2023-05-24T14:35:33;6.60;;;3.78;;
10094;SDS011;5086;50.830;7.102;2023-05-24T14:38:09;7.07;;;3.50;;
10094;SDS011;5086;50.830;7.102;2023-05-24T14:40:37;14.13;;;4.28;;
10094;SDS011;5086;50.830;7.102;2023-05-24T14:43:05;6.13;;;3.28;;
10094;SDS011;5086;50.830;7.102;2023-05-24T14:45:34;8.70;;;4.78;;
10094;SDS011;5086;50.830;7.102;2023-05-24T14:48:05;9.57;;;3.97;;
10094;SDS011;5086;50.830;7.102;2023-05-24T14:50:35;7.72;;;3.50;;
10094;SDS011;5086;50.830;7.102;2023-05-24T14:53:03;14.80;;;3.97;;
10094;SDS011;5086;50.830;7.102;2023-05-24T14:55:35;11.05;;;4.32;;
10094;SDS011;5086;50.830;7.102;2023-05-24T14:58:02;7.68;;;3.35;;
10094;SDS011;5086;50.830;7.102;2023-05-24T15:00:29;12.80;;;5.18;;
10094;SDS011;5086;50.830;7.102;2023-05-24T15:02:56;6.32;;;4.40;;
10094;SDS011;5086;50.830;7.102;2023-05-24T15:05:23;11.80;;;4.55;;
10094;SDS011;5086;50.830;7.102;2023-05-24T15:07:52;5.97;;;3.75;;